createdAt,value
2023-04-09T00:01:31.898Z,40.78
2023-04-09T00:03:59.860Z,40.80
2023-04-09T00:06:27.960Z,40.84
2023-04-09T00:08:55.857Z,40.88
2023-04-09T00:11:23.697Z,40.72
2023-04-09T00:13:51.442Z,40.74
2023-04-09T00:16:19.291Z,40.76
2023-04-09T00:18:47.244Z,40.91
2023-04-09T00:21:16.472Z,40.77
2023-04-09T00:23:44.272Z,40.80
2023-04-09T00:26:12.196Z,40.88
2023-04-09T00:28:40.624Z,40.82
2023-04-09T00:31:09.811Z,40.90
2023-04-09T00:33:37.679Z,40.89
2023-04-09T00:36:06.146Z,40.98
2023-04-09T00:38:33.952Z,40.88
2023-04-09T00:41:01.851Z,40.86
2023-04-09T00:43:30.257Z,40.96
2023-04-09T00:46:00.764Z,40.96
2023-04-09T00:48:28.870Z,40.85
2023-04-09T00:50:57.402Z,40.94
2023-04-09T00:53:26.012Z,40.92
2023-04-09T00:55:55.847Z,40.89
2023-04-09T00:58:23.921Z,40.93
2023-04-09T01:00:51.712Z,40.77
2023-04-09T01:03:19.863Z,40.84
2023-04-09T01:06:04.255Z,40.69
2023-04-09T01:09:01.077Z,40.91
2023-04-09T01:12:11.555Z,40.85
2023-04-09T01:14:55.983Z,40.91
2023-04-09T01:17:39.495Z,40.92
2023-04-09T01:20:35.464Z,40.94
2023-04-09T01:23:37.614Z,41.03
2023-04-09T01:26:45.721Z,41.02
2023-04-09T01:29:15.929Z,41.07
2023-04-09T01:31:45.225Z,41.13
2023-04-09T01:34:15.609Z,41.24
2023-04-09T01:36:51.799Z,41.12
2023-04-09T01:39:20.859Z,41.24
2023-04-09T01:41:50.897Z,41.24
2023-04-09T01:44:20.017Z,41.17
2023-04-09T01:46:49.348Z,41.25
2023-04-09T01:49:18.726Z,41.05
2023-04-09T01:51:48.448Z,41.25
2023-04-09T01:54:17.318Z,41.32
2023-04-09T01:56:48.235Z,41.25
2023-04-09T01:59:16.940Z,41.32
2023-04-09T02:01:50.230Z,41.29
2023-04-09T02:04:36.865Z,41.28
2023-04-09T02:07:38.231Z,41.36
2023-04-09T02:10:09.699Z,41.31
2023-04-09T02:12:41.918Z,41.18
2023-04-09T02:15:10.438Z,41.32
2023-04-09T02:17:38.521Z,41.39
2023-04-09T02:20:07.557Z,41.43
2023-04-09T02:22:35.355Z,41.36
2023-04-09T02:25:03.998Z,41.55
2023-04-09T02:27:31.849Z,41.55
2023-04-09T02:29:59.602Z,41.58
2023-04-09T02:32:27.486Z,41.54
2023-04-09T02:34:55.648Z,41.59
2023-04-09T02:37:23.631Z,41.66
2023-04-09T02:39:51.449Z,41.59
2023-04-09T02:42:20.092Z,41.66
2023-04-09T02:44:47.936Z,41.65
2023-04-09T02:47:16.119Z,41.71
2023-04-09T02:49:44.256Z,41.69
2023-04-09T02:52:13.215Z,41.86
2023-04-09T02:54:41.024Z,41.71
2023-04-09T02:57:08.981Z,41.85
2023-04-09T02:59:39.037Z,41.77
2023-04-09T03:02:07.097Z,41.83
2023-04-09T03:04:34.999Z,41.90
2023-04-09T03:07:02.823Z,41.89
2023-04-09T03:09:31.137Z,41.99
2023-04-09T03:11:58.988Z,41.96
2023-04-09T03:14:27.140Z,42.00
2023-04-09T03:16:55.445Z,42.00
2023-04-09T03:19:23.494Z,42.00
2023-04-09T03:21:51.405Z,41.92
2023-04-09T03:24:23.041Z,42.20
2023-04-09T03:26:51.282Z,41.97
2023-04-09T03:29:20.368Z,42.25
2023-04-09T03:31:48.463Z,42.11
2023-04-09T03:34:16.512Z,42.06
2023-04-09T03:36:48.118Z,42.13
2023-04-09T03:39:24.023Z,42.34
2023-04-09T03:41:52.263Z,42.46
2023-04-09T03:44:20.295Z,42.27
2023-04-09T03:47:02.111Z,42.41
2023-04-09T03:49:30.241Z,42.43
2023-04-09T03:52:07.350Z,42.66
2023-04-09T03:54:38.878Z,42.50
2023-04-09T03:57:12.980Z,42.52
2023-04-09T03:59:43.455Z,42.58
2023-04-09T04:02:12.589Z,42.78
2023-04-09T04:04:46.386Z,42.63
2023-04-09T04:07:14.329Z,42.71
2023-04-09T04:09:48.573Z,42.73
2023-04-09T04:12:19.439Z,42.71
2023-04-09T04:15:13.365Z,42.89
2023-04-09T04:17:46.487Z,42.81
2023-04-09T04:20:23.508Z,42.91
2023-04-09T04:23:03.939Z,42.79
2023-04-09T04:25:32.093Z,42.96
2023-04-09T04:28:01.216Z,43.00
2023-04-09T04:30:37.786Z,42.94
2023-04-09T04:33:09.191Z,42.97
2023-04-09T04:35:44.988Z,43.02
2023-04-09T04:38:30.293Z,42.96
2023-04-09T04:41:01.051Z,42.95
2023-04-09T04:43:29.901Z,42.94
2023-04-09T04:46:00.422Z,43.20
2023-04-09T04:48:32.072Z,42.88
2023-04-09T04:51:02.286Z,42.91
2023-04-09T04:53:38.693Z,42.96
2023-04-09T04:56:15.795Z,42.98
2023-04-09T04:58:55.601Z,43.10
2023-04-09T05:01:23.531Z,42.97
2023-04-09T05:03:51.740Z,43.04
2023-04-09T05:06:30.188Z,43.15
2023-04-09T05:08:59.297Z,43.11
2023-04-09T05:11:29.679Z,43.06
2023-04-09T05:13:57.721Z,43.09
2023-04-09T05:16:25.637Z,43.21
2023-04-09T05:19:01.966Z,42.76
2023-04-09T05:21:29.912Z,43.25
2023-04-09T05:23:59.087Z,43.01
2023-04-09T05:26:27.051Z,43.11
2023-04-09T05:28:58.395Z,43.38
2023-04-09T05:31:26.878Z,43.24
2023-04-09T05:33:59.524Z,43.33
2023-04-09T05:36:36.901Z,43.34
2023-04-09T05:39:04.869Z,43.38
2023-04-09T05:41:33.630Z,43.47
2023-04-09T05:44:19.882Z,43.56
2023-04-09T05:46:49.017Z,43.44
2023-04-09T05:49:21.167Z,43.54
2023-04-09T05:51:52.588Z,43.69
2023-04-09T05:54:26.350Z,43.67
2023-04-09T05:56:54.424Z,43.76
2023-04-09T05:59:22.876Z,43.76
2023-04-09T06:01:50.690Z,44.09
2023-04-09T06:04:18.686Z,44.00
2023-04-09T06:06:47.191Z,44.11
2023-04-09T06:09:15.683Z,44.29
2023-04-09T06:11:43.806Z,44.14
2023-04-09T06:14:16.602Z,44.22
2023-04-09T06:16:44.602Z,44.35
2023-04-09T06:19:13.027Z,44.25
2023-04-09T06:21:41.042Z,44.47
2023-04-09T06:24:08.846Z,44.35
2023-04-09T06:26:36.898Z,44.53
2023-04-09T06:29:04.911Z,44.28
2023-04-09T06:31:33.552Z,44.48
2023-04-09T06:34:01.532Z,44.60
2023-04-09T06:36:30.417Z,44.77
2023-04-09T06:38:59.090Z,44.80
2023-04-09T06:41:27.022Z,44.85
2023-04-09T06:43:55.279Z,44.89
2023-04-09T06:46:23.547Z,44.76
2023-04-09T06:48:51.551Z,44.75
2023-04-09T06:51:19.588Z,44.75
2023-04-09T06:53:48.416Z,44.72
2023-04-09T06:56:16.511Z,44.67
2023-04-09T06:58:44.357Z,44.81
2023-04-09T07:01:12.879Z,44.68
2023-04-09T07:03:41.005Z,44.80
2023-04-09T07:06:08.835Z,44.47
2023-04-09T07:08:36.913Z,44.71
2023-04-09T07:11:05.831Z,44.78
2023-04-09T07:13:33.729Z,44.56
2023-04-09T07:16:03.128Z,44.72
2023-04-09T07:18:31.182Z,44.76
2023-04-09T07:20:59.505Z,44.64
2023-04-09T07:23:27.319Z,44.70
2023-04-09T07:25:55.752Z,44.80
2023-04-09T07:28:23.590Z,44.77
2023-04-09T07:30:51.578Z,44.89
2023-04-09T07:33:19.385Z,44.88
2023-04-09T07:35:47.324Z,44.91
2023-04-09T07:38:20.727Z,44.77
2023-04-09T07:40:48.520Z,44.78
2023-04-09T07:43:16.910Z,44.77
2023-04-09T07:45:44.747Z,44.76
2023-04-09T07:48:13.569Z,44.71
2023-04-09T07:50:41.341Z,44.66
2023-04-09T07:53:09.411Z,44.66
2023-04-09T07:55:37.414Z,44.65
2023-04-09T07:58:07.086Z,44.73
2023-04-09T08:00:35.052Z,44.70
2023-04-09T08:03:03.975Z,44.75
2023-04-09T08:05:32.460Z,44.60
2023-04-09T08:08:00.591Z,44.51
2023-04-09T08:10:28.452Z,44.42
2023-04-09T08:12:56.296Z,44.31
2023-04-09T08:15:25.246Z,44.11
2023-04-09T08:17:53.166Z,44.19
2023-04-09T08:20:21.389Z,44.00
2023-04-09T08:22:49.208Z,43.84
2023-04-09T08:25:17.328Z,43.75
2023-04-09T08:27:47.045Z,43.56
2023-04-09T08:30:17.539Z,43.62
2023-04-09T08:32:47.129Z,43.25
2023-04-09T08:35:15.943Z,43.34
2023-04-09T08:37:45.736Z,43.39
2023-04-09T08:40:13.803Z,43.02
2023-04-09T08:42:46.617Z,42.92
2023-04-09T08:45:14.722Z,42.78
2023-04-09T08:47:43.678Z,42.98
2023-04-09T08:50:13.136Z,42.86
2023-04-09T08:52:41.688Z,42.67
2023-04-09T08:55:12.234Z,42.42
2023-04-09T08:57:41.080Z,42.42
2023-04-09T09:00:09.859Z,42.40
2023-04-09T09:02:39.985Z,42.27
2023-04-09T09:05:09.264Z,42.33
2023-04-09T09:07:38.928Z,42.48
2023-04-09T09:10:08.124Z,42.26
2023-04-09T09:12:41.627Z,41.81
2023-04-09T09:15:28.135Z,41.24
2023-04-09T09:17:59.848Z,41.27
2023-04-09T09:20:29.143Z,41.10
2023-04-09T09:22:57.586Z,41.04
2023-04-09T09:25:26.405Z,40.86
2023-04-09T09:27:54.875Z,40.70
2023-04-09T09:30:25.918Z,40.72
2023-04-09T09:33:04.734Z,40.82
2023-04-09T09:35:51.959Z,40.42
2023-04-09T09:38:20.883Z,40.78
2023-04-09T09:40:52.469Z,40.80
2023-04-09T09:43:20.739Z,40.40
2023-04-09T09:45:49.453Z,40.11
2023-04-09T09:48:17.198Z,40.01
2023-04-09T09:50:48.214Z,39.85
2023-04-09T09:53:22.585Z,39.94
2023-04-09T09:55:54.358Z,39.82
2023-04-09T09:58:40.288Z,38.84
2023-04-09T10:01:11.877Z,39.33
2023-04-09T10:03:43.073Z,38.84
2023-04-09T10:06:13.082Z,38.87
2023-04-09T10:08:43.005Z,38.41
2023-04-09T10:11:12.458Z,38.42
2023-04-09T10:13:46.667Z,37.81
2023-04-09T10:16:16.764Z,37.74
2023-04-09T10:18:44.995Z,37.55
2023-04-09T10:22:04.469Z,37.35
2023-04-09T10:24:34.870Z,37.16
2023-04-09T10:27:17.226Z,36.84
2023-04-09T10:29:48.763Z,36.88
2023-04-09T10:32:23.891Z,36.21
2023-04-09T10:34:52.195Z,35.75
2023-04-09T10:37:50.932Z,35.33
2023-04-09T10:40:24.085Z,35.67
2023-04-09T10:42:52.746Z,35.36
2023-04-09T10:45:22.556Z,35.36
2023-04-09T10:47:53.923Z,35.16
2023-04-09T10:50:23.920Z,35.52
2023-04-09T10:52:54.961Z,35.16
2023-04-09T10:55:42.040Z,34.47
2023-04-09T10:58:13.717Z,34.60
2023-04-09T11:00:47.520Z,34.52
2023-04-09T11:03:33.017Z,34.17
2023-04-09T11:06:06.017Z,34.30
2023-04-09T11:08:35.084Z,34.17
2023-04-09T11:11:03.598Z,34.17
2023-04-09T11:13:32.922Z,34.17
2023-04-09T11:16:03.223Z,34.00
2023-04-09T11:18:33.850Z,33.99
2023-04-09T11:21:04.440Z,34.10
2023-04-09T11:23:33.925Z,34.03
2023-04-09T11:26:02.441Z,33.52
2023-04-09T11:28:30.752Z,33.54
2023-04-09T11:30:58.610Z,32.92
2023-04-09T11:33:34.253Z,32.57
2023-04-09T11:36:06.410Z,32.77
2023-04-09T11:38:38.453Z,33.13
2023-04-09T11:41:06.322Z,33.22
2023-04-09T11:43:37.704Z,32.55
2023-04-09T11:46:08.009Z,32.92
2023-04-09T11:48:36.346Z,33.29
2023-04-09T11:51:04.560Z,32.77
2023-04-09T11:53:32.446Z,32.52
2023-04-09T11:56:00.750Z,32.58
2023-04-09T11:58:28.614Z,32.75
2023-04-09T12:00:59.270Z,32.39
2023-04-09T12:03:33.257Z,32.07
2023-04-09T12:06:05.726Z,32.52
2023-04-09T12:08:37.519Z,32.14
2023-04-09T12:11:15.505Z,31.53
2023-04-09T12:13:44.599Z,31.47
2023-04-09T12:16:13.365Z,31.10
2023-04-09T12:18:41.522Z,31.14
2023-04-09T12:21:09.533Z,30.82
2023-04-09T12:23:37.409Z,30.70
2023-04-09T12:26:05.189Z,30.86
2023-04-09T12:28:33.086Z,31.13
2023-04-09T12:31:01.242Z,30.94
2023-04-09T12:33:29.050Z,30.58
2023-04-09T12:35:58.403Z,30.64
2023-04-09T12:38:26.787Z,30.55
2023-04-09T12:40:54.623Z,30.71
2023-04-09T12:43:22.368Z,30.60
2023-04-09T12:45:50.296Z,30.63
2023-04-09T12:48:18.059Z,30.10
2023-04-09T12:50:48.357Z,30.17
2023-04-09T12:53:16.706Z,30.35
2023-04-09T12:55:46.086Z,30.31
2023-04-09T12:58:13.888Z,30.07
2023-04-09T13:00:43.691Z,29.93
2023-04-09T13:03:11.940Z,29.92
2023-04-09T13:05:40.028Z,29.82
2023-04-09T13:08:08.068Z,29.38
2023-04-09T13:10:36.905Z,29.38
2023-04-09T13:13:04.675Z,28.88
2023-04-09T13:15:32.527Z,29.02
2023-04-09T13:18:00.457Z,28.77
2023-04-09T13:20:28.347Z,28.76
2023-04-09T13:22:56.334Z,28.76
2023-04-09T13:25:24.459Z,29.03
2023-04-09T13:27:52.898Z,28.75
2023-04-09T13:30:22.923Z,28.42
2023-04-09T13:32:50.964Z,28.51
2023-04-09T13:35:19.178Z,28.63
2023-04-09T13:37:47.280Z,28.47
2023-04-09T13:40:16.280Z,28.14
2023-04-09T13:42:44.139Z,28.09
2023-04-09T13:45:12.122Z,28.11
2023-04-09T13:47:39.930Z,28.36
2023-04-09T13:50:10.225Z,28.02
2023-04-09T13:52:38.883Z,28.27
2023-04-09T13:55:08.020Z,28.04
2023-04-09T13:57:35.870Z,28.08
2023-04-09T14:00:05.432Z,28.06
2023-04-09T14:02:36.176Z,27.85
2023-04-09T14:05:04.227Z,27.61
2023-04-09T14:07:32.208Z,27.72
2023-04-09T14:10:00.093Z,27.64
2023-04-09T14:12:28.213Z,27.39
2023-04-09T14:14:56.073Z,27.55
2023-04-09T14:17:25.514Z,27.53
2023-04-09T14:19:53.324Z,27.66
2023-04-09T14:22:21.209Z,27.55
2023-04-09T14:24:49.414Z,27.33
2023-04-09T14:27:17.358Z,27.37
2023-04-09T14:29:50.474Z,27.64
2023-04-09T14:32:18.384Z,27.49
2023-04-09T14:34:46.259Z,27.70
2023-04-09T14:37:14.388Z,27.72
2023-04-09T14:39:42.217Z,27.57
2023-04-09T14:42:11.106Z,27.59
2023-04-09T14:44:39.042Z,27.92
2023-04-09T14:47:07.198Z,27.87
2023-04-09T14:49:36.650Z,27.44
2023-04-09T14:52:04.862Z,27.23
2023-04-09T14:54:33.795Z,27.43
2023-04-09T14:57:02.909Z,27.33
2023-04-09T14:59:30.695Z,27.47
2023-04-09T15:01:58.866Z,27.41
2023-04-09T15:04:27.491Z,27.18
2023-04-09T15:06:55.706Z,26.88
2023-04-09T15:09:24.180Z,27.08
2023-04-09T15:11:54.012Z,27.23
2023-04-09T15:14:25.968Z,26.97
2023-04-09T15:16:55.935Z,27.18
2023-04-09T15:19:23.837Z,27.07
2023-04-09T15:21:56.437Z,27.21
2023-04-09T15:24:24.273Z,26.91
2023-04-09T15:26:53.896Z,26.86
2023-04-09T15:29:22.145Z,26.82
2023-04-09T15:31:53.131Z,26.68
2023-04-09T15:34:23.439Z,26.97
2023-04-09T15:36:51.494Z,26.96
2023-04-09T15:39:19.781Z,27.20
2023-04-09T15:41:47.793Z,27.28
2023-04-09T15:44:15.893Z,27.22
2023-04-09T15:46:43.633Z,27.23
2023-04-09T15:49:11.440Z,26.86
2023-04-09T15:51:39.190Z,27.27
2023-04-09T15:54:07.051Z,27.10
2023-04-09T15:56:36.960Z,26.89
2023-04-09T15:59:05.414Z,27.22
2023-04-09T16:01:36.088Z,27.01
2023-04-09T16:04:05.201Z,27.09
2023-04-09T16:06:34.415Z,27.32
2023-04-09T16:09:02.596Z,27.29
2023-04-09T16:11:30.580Z,26.91
2023-04-09T16:13:58.995Z,27.12
2023-04-09T16:16:26.873Z,27.18
2023-04-09T16:18:55.077Z,27.17
2023-04-09T16:21:23.042Z,27.05
2023-04-09T16:23:51.824Z,27.28
2023-04-09T16:26:19.686Z,27.19
2023-04-09T16:28:49.098Z,27.22
2023-04-09T16:31:17.074Z,27.27
2023-04-09T16:33:44.909Z,26.99
2023-04-09T16:36:13.581Z,27.32
2023-04-09T16:38:41.525Z,27.13
2023-04-09T16:41:11.653Z,27.39
2023-04-09T16:43:39.470Z,27.39
2023-04-09T16:46:07.648Z,26.97
2023-04-09T16:48:37.093Z,27.30
2023-04-09T16:51:06.924Z,27.15
2023-04-09T16:53:38.400Z,27.42
2023-04-09T16:56:07.837Z,27.42
2023-04-09T16:58:35.826Z,27.63
2023-04-09T17:01:04.183Z,27.50
2023-04-09T17:03:32.233Z,27.45
2023-04-09T17:06:00.419Z,27.66
2023-04-09T17:08:28.319Z,27.30
2023-04-09T17:11:02.076Z,27.50
2023-04-09T17:13:34.190Z,27.55
2023-04-09T17:16:03.253Z,27.54
2023-04-09T17:18:31.373Z,27.66
2023-04-09T17:20:59.849Z,27.49
2023-04-09T17:23:27.711Z,27.71
2023-04-09T17:25:58.266Z,27.56
2023-04-09T17:28:27.541Z,27.82
2023-04-09T17:30:55.628Z,27.79
2023-04-09T17:33:23.433Z,27.85
2023-04-09T17:35:51.299Z,28.01
2023-04-09T17:38:21.229Z,27.91
2023-04-09T17:40:48.996Z,28.02
2023-04-09T17:43:17.570Z,27.88
2023-04-09T17:45:47.320Z,28.05
2023-04-09T17:48:15.258Z,27.96
2023-04-09T17:50:43.100Z,28.04
2023-04-09T17:53:11.559Z,28.12
2023-04-09T17:55:44.806Z,28.15
2023-04-09T17:58:12.527Z,28.05
2023-04-09T18:00:40.270Z,28.03
2023-04-09T18:03:11.041Z,28.26
2023-04-09T18:05:39.521Z,28.21
2023-04-09T18:08:07.891Z,28.36
2023-04-09T18:10:36.153Z,28.31
2023-04-09T18:13:04.655Z,28.37
2023-04-09T18:15:32.552Z,28.31
2023-04-09T18:18:00.721Z,28.41
2023-04-09T18:20:30.482Z,28.57
2023-04-09T18:23:02.905Z,28.51
2023-04-09T18:25:30.717Z,28.76
2023-04-09T18:27:58.872Z,28.62
2023-04-09T18:30:29.116Z,28.78
2023-04-09T18:32:58.512Z,28.86
2023-04-09T18:35:26.308Z,28.89
2023-04-09T18:37:54.137Z,28.98
2023-04-09T18:40:22.952Z,28.98
2023-04-09T18:42:54.689Z,29.07
2023-04-09T18:45:24.609Z,29.10
2023-04-09T18:47:52.516Z,29.15
2023-04-09T18:50:21.113Z,29.35
2023-04-09T18:52:49.082Z,29.32
2023-04-09T18:55:18.158Z,29.28
2023-04-09T18:57:46.201Z,29.51
2023-04-09T19:00:15.923Z,29.53
2023-04-09T19:02:44.244Z,29.55
2023-04-09T19:05:14.175Z,29.60
2023-04-09T19:07:44.723Z,29.62
2023-04-09T19:10:13.568Z,29.67
2023-04-09T19:12:49.698Z,29.75
2023-04-09T19:15:17.562Z,29.84
2023-04-09T19:17:45.384Z,29.87
2023-04-09T19:20:13.908Z,29.84
2023-04-09T19:22:48.133Z,29.95
2023-04-09T19:25:17.536Z,29.91
2023-04-09T19:27:46.166Z,29.89
2023-04-09T19:30:14.203Z,30.01
2023-04-09T19:32:42.186Z,29.99
2023-04-09T19:35:12.638Z,29.97
2023-04-09T19:37:41.591Z,30.08
2023-04-09T19:40:10.097Z,30.09
2023-04-09T19:42:37.960Z,30.17
2023-04-09T19:45:06.454Z,30.35
2023-04-09T19:47:34.752Z,30.22
2023-04-09T19:50:02.660Z,30.40
2023-04-09T19:52:31.078Z,30.43
2023-04-09T19:54:58.968Z,30.62
2023-04-09T19:57:27.147Z,30.81
2023-04-09T19:59:55.542Z,30.80
2023-04-09T20:02:25.920Z,30.70
2023-04-09T20:04:54.515Z,30.79
2023-04-09T20:07:22.378Z,30.98
2023-04-09T20:09:50.617Z,30.97
2023-04-09T20:12:20.972Z,30.85
2023-04-09T20:14:50.033Z,30.92
2023-04-09T20:17:19.796Z,31.08
2023-04-09T20:19:47.639Z,31.01
2023-04-09T20:22:16.297Z,30.97
2023-04-09T20:24:44.129Z,31.13
2023-04-09T20:27:12.729Z,31.23
2023-04-09T20:29:42.567Z,31.18
2023-04-09T20:42:50.197Z,31.26
2023-04-09T20:45:18.771Z,31.21
2023-04-09T20:47:47.091Z,31.33
2023-04-09T20:50:15.916Z,31.34
2023-04-09T20:52:44.859Z,31.41
2023-04-09T20:55:16.694Z,31.35
2023-04-09T20:57:45.993Z,31.54
2023-04-09T21:00:18.148Z,31.61
2023-04-09T21:02:48.169Z,31.61
2023-04-09T21:05:23.271Z,31.72
2023-04-09T21:07:54.345Z,31.61
2023-04-09T21:10:22.835Z,31.73
2023-04-09T21:12:51.846Z,31.78
2023-04-09T21:15:20.182Z,31.78
2023-04-09T21:17:50.749Z,31.84
2023-04-09T21:20:19.753Z,31.90
2023-04-09T21:22:48.804Z,31.90
2023-04-09T21:25:17.209Z,32.05
2023-04-09T21:27:46.881Z,31.98
2023-04-09T21:30:14.974Z,32.04
2023-04-09T21:32:43.343Z,32.13
2023-04-09T21:35:11.857Z,32.12
2023-04-09T21:37:40.135Z,32.24
2023-04-09T21:40:09.171Z,32.26
2023-04-09T21:42:39.132Z,32.58
2023-04-09T21:45:09.178Z,32.81
2023-04-09T21:47:37.989Z,32.97
2023-04-09T21:50:08.678Z,33.22
2023-04-09T21:52:40.413Z,33.57
2023-04-09T21:55:10.579Z,33.58
2023-04-09T21:57:39.266Z,33.83
2023-04-09T22:00:11.133Z,33.86
2023-04-09T22:02:39.530Z,33.88
2023-04-09T22:05:10.518Z,33.90
2023-04-09T22:07:42.640Z,34.19
2023-04-09T22:10:11.324Z,34.38
2023-04-09T22:12:39.676Z,34.65
2023-04-09T22:15:08.771Z,34.83
2023-04-09T22:17:39.030Z,34.91
2023-04-09T22:20:10.659Z,35.08
2023-04-09T22:22:39.761Z,35.04
2023-04-09T22:25:09.203Z,35.21
2023-04-09T22:27:37.312Z,35.28
2023-04-09T22:30:07.585Z,35.23
2023-04-09T22:32:36.463Z,35.19
2023-04-09T22:35:07.731Z,35.21
2023-04-09T22:37:36.287Z,35.36
2023-04-09T22:40:10.177Z,35.40
2023-04-09T22:42:40.207Z,35.33
2023-04-09T22:45:12.041Z,35.44
2023-04-09T22:47:40.847Z,35.66
2023-04-09T22:50:14.420Z,35.67
2023-04-09T22:52:43.434Z,35.76
2023-04-09T22:55:14.998Z,35.99
2023-04-09T22:57:46.034Z,35.88
2023-04-09T23:00:15.996Z,36.08
2023-04-09T23:02:47.767Z,36.03
2023-04-09T23:05:17.525Z,36.11
2023-04-09T23:07:47.010Z,36.14
2023-04-09T23:10:17.729Z,36.31
2023-04-09T23:12:48.458Z,36.12
2023-04-09T23:15:17.249Z,36.06
2023-04-09T23:17:45.613Z,36.13
2023-04-09T23:20:15.168Z,36.20
2023-04-09T23:22:47.041Z,36.13
2023-04-09T23:25:16.547Z,36.21
2023-04-09T23:27:44.975Z,36.12
2023-04-09T23:30:17.273Z,36.13
2023-04-09T23:32:46.005Z,36.12
2023-04-09T23:35:14.833Z,36.03
2023-04-09T23:37:44.039Z,36.03
2023-04-09T23:40:12.893Z,36.03
2023-04-09T23:42:41.547Z,36.06
2023-04-09T23:45:11.682Z,36.14
2023-04-09T23:47:40.602Z,36.16
2023-04-09T23:50:09.265Z,36.03
2023-04-09T23:52:38.976Z,36.18
2023-04-09T23:55:09.876Z,36.19
2023-04-09T23:57:38.111Z,36.20
